Terminal Aerodrome Forecast
Issued by NWS

Home | Current Version | Previous Version | Text Only | Print | Product List | Glossary On
Versions: 1 2 3 4 5 6 7 8 9 10 11 12 13 14 15 16 17 18 19 20 21 22 23 24 25 26 27 28 29 30 31 32 33 34
974
FTUS45 KREV 221746
TAFRNO
TAF
KRNO 221746Z 2218/2318 20010G16KT P6SM VCSH SCT015 OVC035
     FM222000 29009G18KT 6SM -SNRA FEW010 BKN028
     FM230000 19007KT 3SM -SN BR SCT012 OVC025
     FM230200 17004KT 1SM -SN BR SCT010 OVC018
      TEMPO 2303/2306 1/2SM SN VV010
     FM230900 28009KT P6SM VCSH FEW012 BKN030=

USA.gov is the U.S. government's official web portal to all federal, state and local government web resources and services.